createdAt,value
2023-01-09T00:00:21.299Z,28.02
2023-01-09T00:05:22.277Z,30.00
2023-01-09T00:10:22.965Z,26.58
2023-01-09T00:15:25.026Z,31.00
2023-01-09T00:20:25.658Z,30.58
2023-01-09T00:25:26.297Z,29.15
2023-01-09T00:30:28.761Z,29.45
2023-01-09T00:35:30.252Z,29.48
2023-01-09T00:40:30.988Z,32.33
2023-01-09T00:45:33.037Z,33.38
2023-01-09T00:50:35.531Z,34.00
2023-01-09T00:55:38.031Z,38.97
2023-01-09T01:00:40.045Z,34.78
2023-01-09T01:05:58.430Z,28.50
2023-01-09T01:10:59.093Z,32.08
2023-01-09T01:16:01.079Z,32.75
2023-01-09T01:21:01.733Z,33.70
2023-01-09T01:26:06.656Z,31.55
2023-01-09T01:31:09.410Z,36.50
2023-01-09T01:36:10.695Z,33.40
2023-01-09T01:41:11.662Z,28.23
2023-01-09T01:46:13.674Z,30.25
2023-01-09T01:51:16.360Z,27.95
2023-01-09T01:56:20.815Z,31.60
2023-01-09T02:01:25.525Z,30.73
2023-01-09T02:06:26.862Z,31.75
2023-01-09T02:11:28.063Z,26.38
2023-01-09T02:16:42.157Z,34.35
2023-01-09T02:21:55.824Z,27.73
2023-01-09T02:27:08.323Z,25.13
2023-01-09T02:32:22.330Z,28.38
2023-01-09T02:37:30.573Z,25.48
2023-01-09T02:42:33.026Z,33.17
2023-01-09T02:47:41.828Z,31.95
2023-01-09T02:53:00.765Z,24.48
2023-01-09T02:58:10.405Z,27.23
2023-01-09T03:03:20.185Z,29.67
2023-01-09T03:08:24.123Z,30.17
2023-01-09T03:13:27.074Z,28.10
2023-01-09T03:18:32.525Z,29.60
2023-01-09T03:23:47.636Z,35.97
2023-01-09T03:28:49.129Z,31.88
2023-01-09T03:33:51.208Z,35.75
2023-01-09T03:38:52.362Z,37.75
2023-01-09T03:43:53.029Z,35.70
2023-01-09T03:48:55.018Z,42.17
2023-01-09T03:53:55.724Z,34.40
2023-01-09T03:58:56.418Z,33.17
2023-01-09T04:03:58.471Z,32.20
2023-01-09T04:08:59.130Z,32.67
2023-01-09T04:13:59.810Z,30.52
2023-01-09T04:19:01.883Z,34.00
2023-01-09T04:24:02.997Z,32.53
2023-01-09T04:29:03.645Z,34.13
2023-01-09T04:34:05.641Z,26.08
2023-01-09T04:39:06.362Z,33.13
2023-01-09T04:44:07.166Z,31.98
2023-01-09T04:49:09.175Z,37.35
2023-01-09T04:54:09.928Z,29.50
2023-01-09T04:59:10.903Z,31.85
2023-01-09T05:04:13.981Z,27.50
2023-01-09T05:09:14.654Z,27.40
2023-01-09T05:14:15.290Z,27.02
2023-01-09T05:19:17.311Z,30.73
2023-01-09T05:24:18.034Z,29.88
2023-01-09T05:29:18.683Z,27.92
2023-01-09T05:34:21.253Z,28.35
2023-01-09T05:39:21.936Z,24.98
2023-01-09T05:44:22.649Z,29.38
2023-01-09T05:49:24.625Z,26.80
2023-01-09T05:54:25.324Z,25.95
2023-01-09T05:59:26.048Z,27.20
2023-01-09T06:04:29.911Z,25.08
2023-01-09T06:09:30.865Z,31.52
2023-01-09T06:14:31.624Z,28.90
2023-01-09T06:19:33.720Z,26.65
2023-01-09T06:24:34.398Z,28.35
2023-01-09T06:29:35.070Z,28.52
2023-01-09T06:34:37.068Z,26.95
2023-01-09T06:39:37.905Z,28.23
2023-01-09T06:44:38.585Z,25.52
2023-01-09T06:49:43.653Z,23.13
2023-01-09T06:54:44.302Z,24.73
2023-01-09T06:59:44.943Z,23.13
2023-01-09T07:04:47.023Z,24.15
2023-01-09T07:09:47.693Z,25.73
2023-01-09T07:14:48.317Z,23.20
2023-01-09T07:19:50.302Z,24.17
2023-01-09T07:24:50.989Z,21.85
2023-01-09T07:29:53.409Z,26.17
2023-01-09T07:34:55.450Z,25.48
2023-01-09T07:39:56.333Z,26.80
2023-01-09T07:44:57.055Z,27.17
2023-01-09T07:49:59.061Z,24.38
2023-01-09T07:54:59.756Z,29.48
2023-01-09T08:00:03.331Z,26.63
2023-01-09T08:05:15.925Z,25.08
2023-01-09T08:10:19.626Z,26.90
2023-01-09T08:15:20.369Z,25.90
2023-01-09T08:20:22.463Z,25.30
2023-01-09T08:25:23.205Z,26.13
2023-01-09T08:30:25.917Z,24.55
2023-01-09T08:35:27.995Z,23.63
2023-01-09T08:40:28.875Z,20.75
2023-01-09T08:45:47.416Z,21.05
2023-01-09T08:50:49.543Z,24.45
2023-01-09T08:55:51.340Z,19.58
2023-01-09T09:00:51.984Z,16.75
2023-01-09T09:05:54.063Z,19.02
2023-01-09T09:10:54.716Z,14.25
2023-01-09T09:15:55.393Z,11.70
2023-01-09T09:20:57.403Z,14.63
2023-01-09T09:25:58.165Z,10.75
2023-01-09T09:30:58.901Z,11.40
2023-01-09T09:36:01.298Z,11.90
2023-01-09T09:41:35.096Z,12.32
2023-01-09T09:46:43.339Z,9.88
2023-01-09T09:51:54.143Z,7.03
2023-01-09T09:56:58.945Z,2.78
2023-01-09T10:02:03.322Z,4.95
2023-01-09T10:07:09.619Z,2.00
2023-01-09T10:12:25.428Z,4.10
2023-01-09T10:17:40.320Z,2.80
2023-01-09T10:22:52.094Z,3.13
2023-01-09T10:28:07.956Z,5.82
2023-01-09T10:33:24.001Z,3.60
2023-01-09T10:38:32.401Z,2.78
2023-01-09T10:43:40.075Z,2.63
2023-01-09T10:48:45.653Z,2.25
2023-01-09T10:53:51.831Z,3.17
2023-01-09T10:58:53.879Z,3.45
2023-01-09T11:03:54.612Z,5.68
2023-01-09T11:09:00.110Z,3.22
2023-01-09T11:14:15.956Z,2.60
2023-01-09T11:19:16.610Z,1.63
2023-01-09T11:24:31.588Z,2.80
2023-01-09T11:29:35.042Z,3.53
2023-01-09T11:34:39.085Z,2.80
2023-01-09T11:39:48.035Z,1.13
2023-01-09T11:44:48.887Z,1.50
2023-01-09T11:49:51.300Z,2.78
2023-01-09T11:54:58.595Z,1.48
2023-01-09T12:00:03.222Z,3.95
2023-01-09T12:05:20.165Z,2.30
2023-01-09T12:10:42.276Z,0.98
2023-01-09T12:15:58.464Z,1.08
2023-01-09T12:21:17.869Z,1.90
2023-01-09T12:26:24.833Z,4.40
2023-01-09T12:31:37.654Z,4.75
2023-01-09T12:36:47.580Z,2.22
2023-01-09T12:42:18.457Z,4.40
2023-01-09T12:47:44.458Z,5.28
2023-01-09T12:52:54.464Z,1.70
2023-01-09T12:58:01.500Z,3.80
2023-01-09T13:03:13.100Z,0.52
2023-01-09T13:08:20.855Z,1.15
2023-01-09T13:13:27.458Z,1.23
2023-01-09T13:18:34.425Z,1.13
2023-01-09T13:23:44.872Z,3.47
2023-01-09T13:28:50.189Z,3.75
2023-01-09T13:33:54.887Z,0.43
2023-01-09T13:38:57.277Z,5.85
2023-01-09T13:44:02.268Z,2.97
2023-01-09T13:49:03.725Z,1.63
2023-01-09T13:54:04.632Z,2.42
2023-01-09T13:59:27.816Z,3.17
2023-01-09T14:04:44.502Z,3.75
2023-01-09T14:09:49.909Z,2.60
2023-01-09T14:14:54.215Z,0.77
2023-01-09T14:19:57.798Z,7.55
2023-01-09T14:25:05.378Z,0.77
2023-01-09T14:30:31.441Z,5.20
2023-01-09T14:35:46.468Z,1.52
2023-01-09T14:40:51.677Z,3.03
2023-01-09T14:45:57.997Z,1.75
2023-01-09T14:51:00.063Z,2.00
2023-01-09T14:56:05.967Z,6.93
2023-01-09T15:01:15.298Z,2.05
2023-01-09T15:06:20.825Z,1.27
2023-01-09T15:11:21.593Z,4.35
2023-01-09T15:16:26.084Z,1.52
2023-01-09T15:21:30.840Z,0.63
2023-01-09T15:26:32.069Z,0.77
2023-01-09T15:31:34.279Z,1.73
2023-01-09T15:36:39.872Z,1.67
2023-01-09T15:41:58.074Z,2.13
2023-01-09T15:47:01.852Z,2.38
2023-01-09T15:52:04.536Z,2.05
2023-01-09T15:57:30.216Z,3.50
2023-01-09T16:02:49.675Z,3.17
2023-01-09T16:07:52.142Z,2.22
2023-01-09T16:12:54.632Z,2.85
2023-01-09T16:18:21.357Z,20.17
2023-01-09T16:23:23.915Z,4.57
2023-01-09T16:28:30.576Z,2.05
2023-01-09T16:33:33.101Z,2.38
2023-01-09T16:38:34.568Z,3.90
2023-01-09T16:43:35.272Z,3.22
2023-01-09T16:48:39.393Z,4.07
2023-01-09T16:53:40.067Z,1.75
2023-01-09T16:58:40.749Z,5.00
2023-01-09T17:03:44.247Z,5.95
2023-01-09T17:08:45.242Z,3.85
2023-01-09T17:13:46.957Z,2.35
2023-01-09T17:18:49.049Z,1.85
2023-01-09T17:24:10.991Z,3.83
2023-01-09T17:29:11.703Z,2.75
2023-01-09T17:34:13.698Z,4.50
2023-01-09T17:39:15.213Z,3.25
2023-01-09T17:44:15.878Z,5.88
2023-01-09T17:49:20.591Z,6.68
2023-01-09T17:54:21.493Z,4.88
2023-01-09T17:59:22.245Z,3.95
2023-01-09T18:04:24.266Z,2.75
2023-01-09T18:09:24.949Z,8.30
2023-01-09T18:14:25.657Z,6.93
2023-01-09T18:19:27.689Z,5.93
2023-01-09T18:24:28.424Z,4.55
2023-01-09T18:29:29.132Z,6.25
2023-01-09T18:34:31.283Z,4.75
2023-01-09T18:39:32.006Z,4.55
2023-01-09T18:44:32.724Z,7.47
2023-01-09T18:49:34.747Z,4.25
2023-01-09T18:54:35.530Z,4.35
2023-01-09T18:59:36.283Z,6.32
2023-01-09T19:04:38.300Z,5.75
2023-01-09T19:09:39.065Z,3.42
2023-01-09T19:14:40.077Z,5.60
2023-01-09T19:19:42.257Z,6.10
2023-01-09T19:24:43.022Z,5.00
2023-01-09T19:29:43.698Z,3.03
2023-01-09T19:34:45.713Z,5.10
2023-01-09T19:39:46.988Z,5.70
2023-01-09T19:44:47.744Z,4.93
2023-01-09T19:49:50.114Z,4.32
2023-01-09T19:54:50.899Z,7.07
2023-01-09T19:59:51.708Z,3.80
2023-01-09T20:04:53.845Z,4.05
2023-01-09T20:09:54.562Z,9.68
2023-01-09T20:14:55.287Z,7.00
2023-01-09T20:19:57.314Z,8.20
2023-01-09T20:24:58.018Z,6.85
2023-01-09T20:30:00.709Z,3.72
2023-01-09T20:35:03.824Z,8.27
2023-01-09T20:40:05.544Z,5.72
2023-01-09T20:45:07.649Z,7.20
2023-01-09T20:50:11.126Z,6.50
2023-01-09T20:55:12.136Z,4.95
2023-01-09T21:00:14.018Z,4.68
2023-01-09T21:05:16.149Z,8.90
2023-01-09T21:10:17.389Z,7.63
2023-01-09T21:15:19.801Z,11.05
2023-01-09T21:20:22.301Z,9.57
2023-01-09T21:25:23.117Z,6.57
2023-01-09T21:30:23.793Z,3.35
2023-01-09T21:35:26.976Z,4.65
2023-01-09T21:40:27.717Z,4.20
2023-01-09T21:45:46.249Z,3.80
2023-01-09T21:50:48.405Z,3.22
2023-01-09T21:55:49.244Z,3.05
2023-01-09T22:00:50.622Z,3.08
2023-01-09T22:05:52.705Z,1.95
2023-01-09T22:10:59.852Z,2.15
2023-01-09T22:16:04.180Z,2.30
2023-01-09T22:21:06.495Z,3.35
2023-01-09T22:26:10.743Z,0.90
2023-01-09T22:31:12.055Z,1.88
2023-01-09T22:36:14.128Z,2.85
2023-01-09T22:41:15.145Z,2.00
2023-01-09T22:46:15.981Z,2.17
2023-01-09T22:51:21.443Z,3.58
2023-01-09T22:56:23.378Z,2.67
2023-01-09T23:01:24.028Z,3.10
2023-01-09T23:06:26.233Z,3.15
2023-01-09T23:11:49.042Z,3.00
2023-01-09T23:16:49.856Z,1.83
2023-01-09T23:21:51.886Z,1.75
2023-01-09T23:26:52.583Z,3.15
2023-01-09T23:31:54.008Z,2.58
2023-01-09T23:36:57.406Z,2.33
2023-01-09T23:42:16.070Z,1.98
2023-01-09T23:47:16.756Z,4.47
2023-01-09T23:52:18.727Z,3.50
2023-01-09T23:57:20.925Z,2.45
